x

Port Orford - 15 Nm West Of Port Orford, Or (46015) Wave Buoy

9:50am - Mon 22nd May 2017 All times are PDT. -7 hours from GMT.

  • Sig Wave height 6.2ft
  • Swell Direction
  • Peak Period 7s
  • Average Period 5s
  • Wind
    25mph, 29mph gusts
  • Sea Temp 54°f
  • Air Temp 56°f
  • Sea Pressure 1015.5mb
  • Port Orford - 15 Nm West Of Port Orford, Or
  • Port Orford - 15 Nm West Of Port Orford, Or

More Historic Weather Station data

Upgrade to MSW Pro to gain access to the past 30 days of data for over 8000 Wavebouys and Weather Stations around the globe.

Join Pro

Comparision Forecast

View Surf forecast
   
Mon 05/22 9:50am 6ft 7s 5s 25 29 mph 1015.5mb 54f 56f
8:50am 6.5ft 7s 5s 22 27 mph 1015.7mb 53f 55f
7:50am 6.5ft 8s 5s 22 27 mph 1015.6mb 54f 55f
5:50am 6.5ft 7s 5s 25 29 mph 1016mb 54f 55f
4:50am 6ft 7s 5s 25 31 mph 1016.2mb 54f 55f
3:50am 6ft 7s 5s 25 29 mph 1016.6mb 54f 55f
2:50am 6.5ft 7s 5s 27 31 mph 1016.6mb 54f 55f
1:50am 6ft 7s 5s 27 34 mph 1016.8mb 54f 55f
12:50am 6ft 7s 5s 25 29 mph 1016.8mb 53f 56f
Sun 05/21 11:50pm 5.5ft 7s 5s 22 27 mph 1017.1mb 53f 56f
10:50pm 6.5ft 7s 5s 22 27 mph 1017.3mb 53f 56f
9:50pm 6ft 7s 5s 22 25 mph 1017.4mb 53f 56f
8:50pm 7ft 7s 5s 20 25 mph 1017.2mb 53f 56f
7:50pm 7ft 7s 5s 25 27 mph 1016.7mb 53f 56f
6:50pm 6.5ft 7s 5s 22 27 mph 1016.7mb 53f 56f
5:50pm 6.5ft 6s 5s 25 29 mph 1017.1mb 53f 56f
4:50pm 6ft 7s 5s 22 27 mph 1017.3mb 53f 56f
3:50pm 7ft 7s 5s 25 27 mph 1017.3mb 53f 55f
2:50pm 7ft 7s 5s 25 29 mph 1017.5mb 54f 55f
1:50pm 7ft 7s 5s 27 31 mph 1017.8mb 54f 54f
12:50pm 7ft 7s 5s 25 29 mph 1018.5mb 54f 54f
11:50am 7ft 6s 5s 27 34 mph 1018.4mb 54f 54f
10:50am 7ft 6s 5s 29 34 mph 1018.4mb 54f 54f
9:50am 7ft 6s 5s 27 34 mph 1018.5mb 54f 53f
8:50am 6ft 7s 5s 29 34 mph 1018.3mb 54f 53f
7:50am 6.5ft 6s 5s 29 34 mph 1018.4mb 54f 53f
6:50am 6.5ft 6s  -  27 31 mph 1018.7mb 54f 53f
5:50am 7ft 6s 5s 29 36 mph 1018.4mb 54f 53f
4:50am 6ft 6s 5s 27 36 mph 1018.9mb 54f 53f
3:50am 6ft 6s 5s 27 31 mph 1019.4mb 54f 53f
2:50am 6ft 6s 5s 27 34 mph 1019.6mb 55f 54f
1:50am 6ft 11s 5s 29 34 mph 1019.3mb 55f 55f
12:50am 6ft 6s 5s 25 31 mph 1019.9mb 55f 55f
Sat 05/20 11:50pm 6ft 6s 5s 25 31 mph 1020.3mb 55f 55f
10:50pm 6.5ft 6s 5s 25 31 mph 1020.4mb 55f 55f
9:50pm 6.5ft 6s 5s 27 31 mph 1020.3mb 55f 54f
8:50pm 6.5ft 5s 5s 27 34 mph 1019.9mb 55f 54f
7:50pm 6ft 5s 5s 27 31 mph 1019.9mb 55f 54f
6:50pm 6ft 5s 5s 27 31 mph 1019.9mb 55f 54f
5:50pm 6ft 12s 5s 27 34 mph 1020.4mb 55f 54f
4:50pm 5.5ft 5s 5s 29 34 mph 1020.6mb 55f 54f
3:50pm 5ft 6s 5s 27 31 mph 1020.9mb 55f 54f
2:50pm 5.5ft 5s 5s 27 31 mph 1021.2mb 55f 54f
1:50pm 5ft 12s 5s 25 29 mph 1021.6mb 55f 54f
12:50pm 5ft 12s 5s 25 27 mph 1021.9mb 55f 54f
11:50am 5ft 7s 5s 22 29 mph 1022.3mb 55f 54f
10:50am 5.5ft 12s 5s 25 29 mph 1022.2mb 55f 53f
9:50am 5.5ft 12s 5s 25 29 mph 1022.2mb 55f 53f
8:50am 5ft 13s 5s 22 29 mph 1022.1mb 55f 53f
7:50am 5ft 13s 5s 22 27 mph 1021.7mb 55f 53f
6:50am 5ft 12s 5s 25 29 mph 1021.2mb 55f 53f
5:50am 5ft 5s 5s 22 27 mph 1020.9mb 55f 53f
4:50am 5ft 9s 5s 22 27 mph 1020.9mb 55f 53f
3:50am 5ft 8s 5s 22 27 mph 1021.1mb 55f 53f
2:50am 5ft 5s 5s 22 27 mph 1020.9mb 55f 54f
1:50am 5ft 8s 5s 22 27 mph 1021.1mb 55f 54f
12:50am 5.5ft 9s 5s 22 29 mph 1021.2mb 55f 54f
Fri 05/19 11:50pm 5.5ft 5s 5s 22 27 mph 1021mb 55f 54f
10:50pm 5.5ft 8s 5s 22 27 mph 1021mb 55f 54f
9:50pm 5.5ft 8s 5s 22 27 mph 1020.9mb 56f 54f
8:50pm 5.5ft 5s 5s 22 27 mph 1020.3mb 56f 54f
7:50pm 5.5ft 9s 5s 25 29 mph 1020mb 56f 54f
6:50pm 5.5ft 5s 5s 25 29 mph 1019.8mb 56f 54f
5:50pm 5ft 4s 5s 22 27 mph 1020mb 56f 55f
4:50pm 5ft 5s 5s 25 29 mph 1020mb 56f 55f
3:50pm 4.5ft 8s 5s 25 29 mph 1020mb 56f 55f
2:50pm 4.5ft 8s 4s 25 29 mph 1020.3mb 56f 55f
1:50pm 4ft 8s 5s 22 27 mph 1020.3mb 55f 55f
12:50pm 4.5ft 9s 5s 22 25 mph 1020.1mb 55f 55f
11:50am 4.5ft 9s 5s 22 27 mph 1020.3mb 55f 55f
10:50am 4ft 9s 5s 22 25 mph 1020.1mb 55f 55f
9:50am 4ft 8s 5s 18 20 mph 1020.4mb 55f 55f
8:50am 4ft 8s 5s 16 18 mph 1020.1mb 55f 55f
7:50am 3.5ft 8s 5s 16 18 mph 1020mb 55f 55f
6:50am 3.5ft 9s  -  16 20 mph 1019.7mb 55f 55f
5:50am 3.5ft 8s  -  16 18 mph 1019.5mb 55f 55f
4:50am 3.5ft 8s 6s 13 16 mph 1019.5mb 55f 55f
3:50am 3ft 9s 6s 16 18 mph 1019.5mb 55f 55f
2:50am 3.5ft 9s 6s 13 18 mph 1019.7mb 55f 55f
1:50am 3.5ft 9s 6s 13 16 mph 1019.9mb 55f 55f
12:50am 3.5ft 9s 7s 13 16 mph 1020.1mb 55f 55f
Thu 05/18 11:50pm 3.5ft 9s 7s 11 11 mph 1020.3mb 55f 55f
10:50pm 3.5ft 8s 6s 9 11 mph 1020.2mb 55f 55f
9:50pm 4ft 9s 6s 11 13 mph 1020mb 55f 55f
8:50pm 4ft 10s 6s 11 11 mph 1019.9mb 55f 55f
7:50pm 4ft 10s 6s 11 13 mph 1019.8mb 55f 55f
6:50pm 4ft 8s 6s 11 13 mph 1019.9mb 55f 56f